createdAt,value
2023-01-13T00:00:32.751Z,99740.03
2023-01-13T00:02:04.743Z,99736.09
2023-01-13T00:03:37.141Z,99739.34
2023-01-13T00:05:10.303Z,99736.44
2023-01-13T00:06:42.258Z,99740.34
2023-01-13T00:08:14.261Z,99740.16
2023-01-13T00:09:46.211Z,99740.44
2023-01-13T00:11:19.157Z,99736.28
2023-01-13T00:12:51.518Z,99732.66
2023-01-13T00:14:23.589Z,99733.16
2023-01-13T00:15:59.432Z,99732.44
2023-01-13T00:17:31.495Z,99727.34
2023-01-13T00:19:03.406Z,99726.66
2023-01-13T00:20:35.369Z,99727.16
2023-01-13T00:22:07.243Z,99733.03
2023-01-13T00:23:39.726Z,99728.19
2023-01-13T00:25:11.844Z,99726.22
2023-01-13T00:26:44.200Z,99726.94
2023-01-13T00:28:16.093Z,99733.56
2023-01-13T00:29:48.416Z,99728.66
2023-01-13T00:31:21.203Z,99726.72
2023-01-13T00:32:53.255Z,99721.84
2023-01-13T00:34:25.219Z,99722.38
2023-01-13T00:35:58.093Z,99714.28
2023-01-13T00:37:30.011Z,99725.78
2023-01-13T00:39:03.232Z,99719.69
2023-01-13T00:40:35.158Z,99723.59
2023-01-13T00:42:25.683Z,99716.03
2023-01-13T00:43:57.611Z,99719.22
2023-01-13T00:45:29.577Z,99723.88
2023-01-13T00:47:01.811Z,99719.00
2023-01-13T00:48:34.016Z,99720.97
2023-01-13T00:50:05.963Z,99714.13
2023-01-13T00:51:37.978Z,99715.38
2023-01-13T00:53:09.938Z,99713.22
2023-01-13T00:54:41.973Z,99704.63
2023-01-13T00:56:16.665Z,99705.16
2023-01-13T00:57:48.725Z,99713.94
2023-01-13T00:59:20.661Z,99708.03
2023-01-13T01:00:52.784Z,99705.88
2023-01-13T01:02:24.803Z,99712.50
2023-01-13T01:03:56.885Z,99692.44
2023-01-13T01:05:28.777Z,99702.47
2023-01-13T01:07:00.802Z,99702.97
2023-01-13T01:08:32.814Z,99704.44
2023-01-13T01:10:04.980Z,99696.38
2023-01-13T01:11:37.932Z,99696.38
2023-01-13T01:13:11.868Z,99689.53
2023-01-13T01:14:44.712Z,99690.78
2023-01-13T01:16:17.856Z,99681.28
2023-01-13T01:17:49.912Z,99688.59
2023-01-13T01:19:21.909Z,99691.78
2023-01-13T01:20:53.814Z,99691.06
2023-01-13T01:22:25.836Z,99686.41
2023-01-13T01:23:59.319Z,99687.38
2023-01-13T01:25:32.537Z,99683.22
2023-01-13T01:27:04.447Z,99679.81
2023-01-13T01:28:36.339Z,99687.66
2023-01-13T01:30:08.733Z,99681.56
2023-01-13T01:31:40.668Z,99668.59
2023-01-13T01:33:12.647Z,99674.22
2023-01-13T01:34:44.627Z,99671.28
2023-01-13T01:36:17.375Z,99658.38
2023-01-13T01:37:49.573Z,99661.59
2023-01-13T01:39:21.693Z,99657.41
2023-01-13T01:40:53.582Z,99657.41
2023-01-13T01:42:45.904Z,99653.53
2023-01-13T01:44:36.097Z,99663.56
2023-01-13T01:46:08.029Z,99662.59
2023-01-13T01:47:40.727Z,99664.75
2023-01-13T01:49:12.638Z,99667.25
2023-01-13T01:50:44.966Z,99664.56
2023-01-13T01:52:22.576Z,99654.84
2023-01-13T01:53:56.733Z,99659.50
2023-01-13T01:55:33.463Z,99654.13
2023-01-13T01:57:06.081Z,99654.13
2023-01-13T01:58:42.282Z,99652.66
2023-01-13T02:00:14.786Z,99651.44
2023-01-13T02:01:47.800Z,99646.56
2023-01-13T02:03:20.130Z,99650.72
2023-01-13T02:04:53.560Z,99650.47
2023-01-13T02:06:25.582Z,99640.97
2023-01-13T02:07:58.898Z,99642.94
2023-01-13T02:09:31.269Z,99640.53
2023-01-13T02:11:04.655Z,99637.63
2023-01-13T02:12:37.208Z,99640.59
2023-01-13T02:14:09.193Z,99642.31
2023-01-13T02:16:08.682Z,99641.69
2023-01-13T02:17:47.949Z,99641.78
2023-01-13T02:19:38.541Z,99635.97
2023-01-13T02:21:29.182Z,99628.69
2023-01-13T02:23:01.058Z,99635.56
2023-01-13T02:24:55.698Z,99626.34
2023-01-13T02:26:27.754Z,99617.88
2023-01-13T02:28:18.552Z,99616.41
2023-01-13T02:30:27.327Z,99619.88
2023-01-13T02:32:04.810Z,99620.88
2023-01-13T02:33:37.171Z,99612.13
2023-01-13T02:35:21.563Z,99606.75
2023-01-13T02:36:58.346Z,99609.94
2023-01-13T02:38:33.236Z,99599.94
2023-01-13T02:40:26.098Z,99601.59
2023-01-13T02:42:23.102Z,99604.28
2023-01-13T02:44:08.839Z,99598.19
2023-01-13T02:45:43.815Z,99591.59
2023-01-13T02:47:20.880Z,99590.84
2023-01-13T02:48:54.417Z,99589.41
2023-01-13T02:50:32.352Z,99590.13
2023-01-13T02:52:10.361Z,99594.78
2023-01-13T02:53:51.035Z,99590.66
2023-01-13T02:55:43.379Z,99593.31
2023-01-13T02:57:17.388Z,99602.81
2023-01-13T02:58:50.384Z,99598.91
2023-01-13T03:00:23.321Z,99594.50
2023-01-13T03:01:57.111Z,99591.03
2023-01-13T03:03:29.239Z,99592.50
2023-01-13T03:05:01.191Z,99594.16
2023-01-13T03:06:37.275Z,99599.25
2023-01-13T03:08:12.055Z,99597.28
2023-01-13T03:09:50.291Z,99594.59
2023-01-13T03:11:22.367Z,99595.28
2023-01-13T03:13:06.524Z,99599.97
2023-01-13T03:14:38.415Z,99595.28
2023-01-13T03:16:13.055Z,99595.28
2023-01-13T03:17:50.765Z,99601.19
2023-01-13T03:19:30.316Z,99602.22
2023-01-13T03:21:06.430Z,99602.94
2023-01-13T03:22:42.958Z,99593.22
2023-01-13T03:24:17.889Z,99601.03
2023-01-13T03:25:53.411Z,99597.91
2023-01-13T03:27:30.178Z,99602.34
2023-01-13T03:29:22.077Z,99597.00
2023-01-13T03:30:57.075Z,99595.16
2023-01-13T03:32:32.640Z,99593.69
2023-01-13T03:34:07.729Z,99587.63
2023-01-13T03:35:42.032Z,99587.88
2023-01-13T03:37:14.872Z,99603.75
2023-01-13T03:38:51.636Z,99605.50
2023-01-13T03:40:27.280Z,99595.25
2023-01-13T03:42:01.783Z,99607.22
2023-01-13T03:43:57.675Z,99618.47
2023-01-13T03:45:31.237Z,99617.94
2023-01-13T03:47:03.997Z,99620.16
2023-01-13T03:48:36.848Z,99616.22
2023-01-13T03:50:11.933Z,99619.84
2023-01-13T03:51:46.299Z,99622.03
2023-01-13T03:53:23.036Z,99615.44
2023-01-13T03:54:58.148Z,99614.44
2023-01-13T03:56:33.834Z,99613.94
2023-01-13T03:58:08.542Z,99612.69
2023-01-13T03:59:42.728Z,99611.25
2023-01-13T04:01:32.124Z,99617.84
2023-01-13T04:03:04.206Z,99605.66
2023-01-13T04:04:40.303Z,99604.19
2023-01-13T04:06:23.767Z,99614.94
2023-01-13T04:08:07.730Z,99617.59
2023-01-13T04:09:42.790Z,99614.72
2023-01-13T04:11:18.607Z,99610.78
2023-01-13T04:13:02.000Z,99618.38
2023-01-13T04:14:35.012Z,99615.16
2023-01-13T04:16:07.918Z,99608.06
2023-01-13T04:17:40.272Z,99603.44
2023-01-13T04:19:12.285Z,99602.69
2023-01-13T04:20:45.433Z,99608.81
2023-01-13T04:22:17.426Z,99614.88
2023-01-13T04:23:51.538Z,99605.59
2023-01-13T04:25:23.498Z,99612.84
2023-01-13T04:26:56.554Z,99616.97
2023-01-13T04:28:28.490Z,99614.72
2023-01-13T04:30:00.398Z,99614.97
2023-01-13T04:31:32.541Z,99622.22
2023-01-13T04:33:05.351Z,99613.19
2023-01-13T04:34:37.364Z,99607.50
2023-01-13T04:36:09.400Z,99615.75
2023-01-13T04:37:41.385Z,99612.56
2023-01-13T04:39:13.379Z,99616.00
2023-01-13T04:40:45.627Z,99609.59
2023-01-13T04:42:17.572Z,99604.22
2023-01-13T04:43:49.584Z,99604.94
2023-01-13T04:45:21.558Z,99611.28
2023-01-13T04:46:53.712Z,99608.59
2023-01-13T04:48:25.613Z,99601.25
2023-01-13T04:49:57.557Z,99612.72
2023-01-13T04:51:29.479Z,99611.00
2023-01-13T04:53:01.682Z,99606.88
2023-01-13T04:54:33.858Z,99609.03
2023-01-13T04:56:06.115Z,99609.56
2023-01-13T04:57:38.084Z,99604.91
2023-01-13T04:59:10.682Z,99601.72
2023-01-13T05:00:42.631Z,99606.56
2023-01-13T05:02:20.023Z,99609.66
2023-01-13T05:03:52.173Z,99615.03
2023-01-13T05:05:24.184Z,99613.06
2023-01-13T05:06:56.099Z,99613.06
2023-01-13T05:08:28.089Z,99616.31
2023-01-13T05:10:00.059Z,99613.63
2023-01-13T05:11:50.636Z,99624.34
2023-01-13T05:13:41.177Z,99620.41
2023-01-13T05:15:32.230Z,99621.66
2023-01-13T05:17:04.285Z,99623.31
2023-01-13T05:18:36.412Z,99614.53
2023-01-13T05:20:08.943Z,99613.81
2023-01-13T05:21:59.366Z,99610.38
2023-01-13T05:23:49.892Z,99612.16
2023-01-13T05:25:21.905Z,99603.56
2023-01-13T05:26:53.848Z,99601.44
2023-01-13T05:28:25.833Z,99602.66
2023-01-13T05:29:57.979Z,99589.25
2023-01-13T05:31:30.022Z,99588.50
2023-01-13T05:33:02.002Z,99593.66
2023-01-13T05:34:34.057Z,99594.88
2023-01-13T05:36:06.274Z,99591.97
2023-01-13T05:37:38.302Z,99596.13
2023-01-13T05:39:10.254Z,99594.66
2023-01-13T05:41:00.831Z,99595.38
2023-01-13T05:42:51.188Z,99594.88
2023-01-13T05:44:23.156Z,99604.59
2023-01-13T05:46:02.810Z,99597.72
2023-01-13T05:47:34.822Z,99598.63
2023-01-13T05:49:06.802Z,99598.16
2023-01-13T05:50:38.811Z,99598.16
2023-01-13T05:52:10.872Z,99598.16
2023-01-13T05:53:42.889Z,99598.16
2023-01-13T05:55:15.012Z,99598.63
2023-01-13T05:56:47.117Z,99595.22
2023-01-13T05:58:20.016Z,99591.31
2023-01-13T05:59:51.998Z,99586.66
2023-01-13T06:01:23.989Z,99589.34
2023-01-13T06:02:55.997Z,99583.97
2023-01-13T06:04:28.061Z,99579.63
2023-01-13T06:06:02.251Z,99581.59
2023-01-13T06:07:34.272Z,99590.09
2023-01-13T06:09:06.281Z,99592.53
2023-01-13T06:10:38.261Z,99589.84
2023-01-13T06:12:13.548Z,99596.38
2023-01-13T06:13:45.627Z,99595.66
2023-01-13T06:15:17.952Z,99595.47
2023-01-13T06:16:49.891Z,99589.84
2023-01-13T06:18:21.934Z,99588.91
2023-01-13T06:19:53.888Z,99590.88
2023-01-13T06:21:25.899Z,99599.22
2023-01-13T06:22:57.907Z,99594.16
2023-01-13T06:24:29.845Z,99599.31
2023-01-13T06:26:01.823Z,99601.50
2023-01-13T06:27:34.452Z,99595.91
2023-01-13T06:29:06.673Z,99587.63
2023-01-13T06:30:40.230Z,99596.19
2023-01-13T06:32:17.712Z,99596.19
2023-01-13T06:33:52.245Z,99591.31
2023-01-13T06:35:26.129Z,99597.94
2023-01-13T06:36:58.067Z,99588.41
2023-01-13T06:38:31.276Z,99583.53
2023-01-13T06:40:05.203Z,99586.75
2023-01-13T06:41:56.004Z,99588.19
2023-01-13T06:43:28.222Z,99592.84
2023-01-13T06:45:00.390Z,99593.56
2023-01-13T06:46:32.590Z,99594.09
2023-01-13T06:48:04.942Z,99600.63
2023-01-13T06:49:37.525Z,99605.25
2023-01-13T06:51:09.455Z,99604.03
2023-01-13T06:52:41.450Z,99605.47
2023-01-13T06:54:13.400Z,99597.50
2023-01-13T06:55:45.684Z,99601.63
2023-01-13T06:57:17.685Z,99602.13
2023-01-13T06:58:49.667Z,99604.50
2023-01-13T07:00:22.140Z,99603.50
2023-01-13T07:01:54.321Z,99606.63
2023-01-13T07:03:26.411Z,99603.22
2023-01-13T07:04:58.453Z,99609.31
2023-01-13T07:06:30.564Z,99613.44
2023-01-13T07:08:02.565Z,99622.75
2023-01-13T07:09:34.488Z,99613.44
2023-01-13T07:11:07.144Z,99619.78
2023-01-13T07:12:59.807Z,99619.78
2023-01-13T07:14:50.186Z,99622.38
2023-01-13T07:16:24.321Z,99620.94
2023-01-13T07:17:56.387Z,99621.47
2023-01-13T07:19:28.464Z,99627.59
2023-01-13T07:21:01.676Z,99617.63
2023-01-13T07:22:33.649Z,99628.34
2023-01-13T07:24:05.754Z,99616.84
2023-01-13T07:25:37.714Z,99619.25
2023-01-13T07:27:09.727Z,99615.56
2023-01-13T07:28:41.700Z,99611.84
2023-01-13T07:30:13.921Z,99616.19
2023-01-13T07:31:47.652Z,99612.75
2023-01-13T07:33:21.867Z,99611.72
2023-01-13T07:34:53.843Z,99626.38
2023-01-13T07:36:25.897Z,99628.84
2023-01-13T07:37:57.899Z,99623.47
2023-01-13T07:39:30.037Z,99631.66
2023-01-13T07:41:21.906Z,99631.19
2023-01-13T07:43:12.663Z,99628.69
2023-01-13T07:44:44.760Z,99632.53
2023-01-13T07:46:17.119Z,99627.16
2023-01-13T07:47:50.925Z,99631.44
2023-01-13T07:49:22.882Z,99639.94
2023-01-13T07:50:55.616Z,99640.88
2023-01-13T07:52:27.733Z,99634.47
2023-01-13T07:53:59.711Z,99635.63
2023-01-13T07:55:31.746Z,99638.75
2023-01-13T07:57:03.810Z,99633.81
2023-01-13T07:58:36.594Z,99633.28
2023-01-13T08:00:10.480Z,99643.50
2023-01-13T08:01:44.140Z,99642.25
2023-01-13T08:03:16.130Z,99638.13
2023-01-13T08:04:48.228Z,99637.94
2023-01-13T08:06:20.250Z,99642.06
2023-01-13T08:07:52.309Z,99646.50
2023-01-13T08:09:24.454Z,99652.19
2023-01-13T08:11:00.212Z,99651.25
2023-01-13T08:12:55.734Z,99648.56
2023-01-13T08:14:28.959Z,99638.81
2023-01-13T08:16:02.427Z,99643.69
2023-01-13T08:17:34.487Z,99646.59
2023-01-13T08:19:06.501Z,99641.13
2023-01-13T08:20:38.567Z,99647.03
2023-01-13T08:22:10.597Z,99645.06
2023-01-13T08:23:43.692Z,99645.06
2023-01-13T08:25:15.832Z,99642.50
2023-01-13T08:26:47.855Z,99638.56
2023-01-13T08:28:19.832Z,99630.78
2023-01-13T08:29:51.933Z,99632.25
2023-01-13T08:31:23.964Z,99622.94
2023-01-13T08:32:56.213Z,99621.63
2023-01-13T08:34:28.252Z,99622.06
2023-01-13T08:36:03.304Z,99636.22
2023-01-13T08:37:35.358Z,99631.78
2023-01-13T08:39:07.466Z,99637.56
2023-01-13T08:40:40.206Z,99635.31
2023-01-13T08:42:12.336Z,99650.22
2023-01-13T08:43:44.311Z,99639.69
2023-01-13T08:45:16.824Z,99652.16
2023-01-13T08:46:48.962Z,99653.63
2023-01-13T08:48:21.118Z,99659.44
2023-01-13T08:49:53.145Z,99660.38
2023-01-13T08:51:25.315Z,99659.09
2023-01-13T08:52:57.325Z,99653.97
2023-01-13T08:54:29.483Z,99654.59
2023-01-13T08:56:01.444Z,99657.50
2023-01-13T08:57:33.565Z,99658.94
2023-01-13T08:59:06.108Z,99654.81
2023-01-13T09:00:38.147Z,99657.41
2023-01-13T09:02:13.291Z,99649.75
2023-01-13T09:03:45.453Z,99656.16
2023-01-13T09:05:17.941Z,99656.16
2023-01-13T09:06:50.246Z,99661.84
2023-01-13T09:08:22.240Z,99659.09
2023-01-13T09:09:56.889Z,99650.28
2023-01-13T09:11:49.573Z,99647.66
2023-01-13T09:13:22.200Z,99651.41
2023-01-13T09:14:54.199Z,99650.00
2023-01-13T09:16:26.668Z,99656.47
2023-01-13T09:17:58.782Z,99660.78
2023-01-13T09:19:30.860Z,99658.09
2023-01-13T09:21:02.836Z,99658.50
2023-01-13T09:22:37.611Z,99662.56
2023-01-13T09:24:09.673Z,99661.53
2023-01-13T09:25:41.761Z,99655.94
2023-01-13T09:27:14.941Z,99643.41
2023-01-13T09:28:47.058Z,99644.81
2023-01-13T09:30:19.166Z,99632.25
2023-01-13T09:31:51.193Z,99616.22
2023-01-13T09:33:41.934Z,99613.25
2023-01-13T09:35:14.017Z,99619.78
2023-01-13T09:36:46.030Z,99628.97
2023-01-13T09:38:18.047Z,99649.28
2023-01-13T09:39:50.038Z,99646.53
2023-01-13T09:41:44.384Z,99652.75
2023-01-13T09:43:38.131Z,99650.59
2023-01-13T09:45:18.272Z,99645.13
2023-01-13T09:46:53.459Z,99634.28
2023-01-13T09:48:28.493Z,99628.91
2023-01-13T09:50:15.505Z,99624.88
2023-01-13T09:51:54.742Z,99617.22
2023-01-13T09:53:37.000Z,99614.19
2023-01-13T09:55:15.145Z,99622.31
2023-01-13T09:56:47.257Z,99626.28
2023-01-13T09:58:19.837Z,99622.53
2023-01-13T09:59:52.873Z,99618.41
2023-01-13T10:01:24.826Z,99618.72
2023-01-13T10:03:01.789Z,99623.56
2023-01-13T10:04:34.072Z,99618.59
2023-01-13T10:06:15.691Z,99614.66
2023-01-13T10:07:50.951Z,99612.47
2023-01-13T10:09:54.944Z,99609.69
2023-01-13T10:11:49.002Z,99604.78
2023-01-13T10:13:25.934Z,99606.34
2023-01-13T10:14:57.942Z,99600.88
2023-01-13T10:16:42.061Z,99597.91
2023-01-13T10:18:24.260Z,99598.53
2023-01-13T10:19:59.346Z,99586.63
2023-01-13T10:21:53.160Z,99599.50
2023-01-13T10:23:40.544Z,99600.53
2023-01-13T10:25:21.041Z,99602.59
2023-01-13T10:27:03.354Z,99597.28
2023-01-13T10:28:35.268Z,99594.09
2023-01-13T10:30:23.999Z,99581.53
2023-01-13T10:31:56.876Z,99576.16
2023-01-13T10:33:28.989Z,99572.63
2023-01-13T10:35:01.791Z,99578.06
2023-01-13T10:36:34.578Z,99573.16
2023-01-13T10:38:15.018Z,99573.03
2023-01-13T10:39:48.429Z,99574.75
2023-01-13T10:41:24.384Z,99574.59
2023-01-13T10:43:08.672Z,99563.72
2023-01-13T10:45:08.017Z,99552.22
2023-01-13T10:46:53.485Z,99540.25
2023-01-13T10:48:32.985Z,99551.63
2023-01-13T10:50:13.796Z,99544.13
2023-01-13T10:51:49.579Z,99544.84
2023-01-13T10:53:25.234Z,99545.59
2023-01-13T10:54:57.470Z,99548.91
2023-01-13T10:56:31.408Z,99543.84
2023-01-13T10:58:19.670Z,99545.41
2023-01-13T10:59:53.073Z,99535.16
2023-01-13T11:01:26.658Z,99536.03
2023-01-13T11:03:15.614Z,99536.03
2023-01-13T11:04:53.837Z,99541.44
2023-01-13T11:06:27.981Z,99535.63
2023-01-13T11:08:00.028Z,99536.03
2023-01-13T11:09:32.155Z,99530.06
2023-01-13T11:11:22.891Z,99541.03
2023-01-13T11:12:54.849Z,99533.34
2023-01-13T11:14:41.774Z,99537.84
2023-01-13T11:16:15.656Z,99539.31
2023-01-13T11:18:19.990Z,99537.72
2023-01-13T11:20:00.810Z,99533.22
2023-01-13T11:21:38.934Z,99529.47
2023-01-13T11:23:25.405Z,99532.41
2023-01-13T11:24:59.903Z,99518.03
2023-01-13T11:26:40.824Z,99515.84
2023-01-13T11:28:21.029Z,99513.16
2023-01-13T11:30:10.186Z,99508.16
2023-01-13T11:31:53.488Z,99510.47
2023-01-13T11:33:30.904Z,99507.00
2023-01-13T11:35:04.983Z,99501.63
2023-01-13T11:36:57.267Z,99499.47
2023-01-13T11:38:38.491Z,99494.06
2023-01-13T11:40:16.590Z,99498.25
2023-01-13T11:42:12.245Z,99509.09
2023-01-13T11:43:46.948Z,99499.41
2023-01-13T11:45:21.971Z,99494.06
2023-01-13T11:46:54.071Z,99493.38
2023-01-13T11:48:30.533Z,99494.66
2023-01-13T11:50:03.057Z,99483.31
2023-01-13T11:51:48.503Z,99488.34
2023-01-13T11:53:20.450Z,99488.88
2023-01-13T11:54:58.240Z,99491.03
2023-01-13T11:56:48.452Z,99487.97
2023-01-13T11:58:20.487Z,99496.97
2023-01-13T11:59:52.587Z,99500.38
2023-01-13T12:01:29.826Z,99487.44
2023-01-13T12:03:17.482Z,99498.22
2023-01-13T12:04:49.513Z,99497.69
2023-01-13T12:06:21.460Z,99493.94
2023-01-13T12:07:58.797Z,99499.34
2023-01-13T12:09:39.777Z,99498.59
2023-01-13T12:11:11.792Z,99487.63
2023-01-13T12:13:02.567Z,99481.09
2023-01-13T12:14:40.386Z,99490.06
2023-01-13T12:16:26.413Z,99478.34
2023-01-13T12:18:01.259Z,99494.31
2023-01-13T12:19:33.240Z,99486.56
2023-01-13T12:21:21.665Z,99491.41
2023-01-13T12:22:55.791Z,99492.88
2023-01-13T12:24:36.666Z,99489.81
2023-01-13T12:26:11.276Z,99473.91
2023-01-13T12:27:59.310Z,99473.50
2023-01-13T12:29:33.286Z,99480.47
2023-01-13T12:31:07.405Z,99477.78
2023-01-13T12:32:39.650Z,99476.38
2023-01-13T12:34:29.965Z,99483.19
2023-01-13T12:36:07.127Z,99466.28
2023-01-13T12:37:59.333Z,99470.63
2023-01-13T12:39:44.548Z,99473.00
2023-01-13T12:41:30.843Z,99470.63
2023-01-13T12:43:22.702Z,99471.66
2023-01-13T12:45:09.873Z,99471.34
2023-01-13T12:46:45.180Z,99467.72
2023-01-13T12:48:35.545Z,99475.28
2023-01-13T12:50:22.576Z,99476.19
2023-01-13T12:51:54.607Z,99473.38
2023-01-13T12:53:30.879Z,99468.69
2023-01-13T12:55:08.011Z,99468.34
2023-01-13T12:56:42.270Z,99470.69
2023-01-13T12:58:17.353Z,99466.94
2023-01-13T13:00:04.415Z,99479.88
2023-01-13T13:01:37.147Z,99487.63
2023-01-13T13:03:15.826Z,99477.94
2023-01-13T13:04:51.780Z,99480.13
2023-01-13T13:06:24.064Z,99475.06
2023-01-13T13:08:10.160Z,99491.78
2023-01-13T13:09:49.520Z,99487.63
2023-01-13T13:11:41.996Z,99480.63
2023-01-13T13:13:32.810Z,99475.75
2023-01-13T13:15:05.494Z,99465.16
2023-01-13T13:16:45.705Z,99474.84
2023-01-13T13:18:17.791Z,99476.28
2023-01-13T13:19:49.964Z,99479.69
2023-01-13T13:21:22.160Z,99479.69
2023-01-13T13:22:54.085Z,99482.59
2023-01-13T13:24:26.381Z,99487.63
2023-01-13T13:26:13.345Z,99489.97
2023-01-13T13:27:48.063Z,99489.44
2023-01-13T13:29:20.060Z,99478.31
2023-01-13T13:30:58.083Z,99483.16
2023-01-13T13:32:35.845Z,99488.56
2023-01-13T13:34:10.801Z,99497.38
2023-01-13T13:35:43.326Z,99495.06
2023-01-13T13:37:24.358Z,99492.75
2023-01-13T13:39:28.868Z,99493.66
2023-01-13T13:41:23.546Z,99491.28
2023-01-13T13:43:15.664Z,99494.16
2023-01-13T13:45:06.850Z,99503.50
2023-01-13T13:46:48.417Z,99503.88
2023-01-13T13:48:22.170Z,99507.81
2023-01-13T13:49:54.664Z,99504.19
2023-01-13T13:51:38.485Z,99502.22
2023-01-13T13:53:11.396Z,99502.88
2023-01-13T13:54:49.267Z,99497.09
2023-01-13T13:56:25.953Z,99504.28
2023-01-13T13:57:59.247Z,99507.13
2023-01-13T13:59:33.608Z,99518.97
2023-01-13T14:01:05.859Z,99515.38
2023-01-13T14:02:38.090Z,99517.16
2023-01-13T14:04:10.248Z,99509.72
2023-01-13T14:06:04.698Z,99504.31
2023-01-13T14:07:47.039Z,99511.50
2023-01-13T14:09:19.454Z,99514.78
2023-01-13T14:10:51.611Z,99524.03
2023-01-13T14:12:24.870Z,99523.81
2023-01-13T14:14:04.533Z,99527.25
2023-01-13T14:15:36.999Z,99529.56
2023-01-13T14:17:17.576Z,99529.16
2023-01-13T14:18:49.564Z,99522.34
2023-01-13T14:20:21.711Z,99516.75
2023-01-13T14:21:54.249Z,99511.72
2023-01-13T14:23:27.474Z,99530.91
2023-01-13T14:25:01.714Z,99540.66
2023-01-13T14:26:34.979Z,99524.25
2023-01-13T14:28:14.553Z,99516.50
2023-01-13T14:29:46.634Z,99522.59
2023-01-13T14:31:18.752Z,99510.00
2023-01-13T14:32:51.105Z,99515.91
2023-01-13T14:34:31.166Z,99513.94
2023-01-13T14:36:18.565Z,99519.13
2023-01-13T14:37:54.357Z,99523.63
2023-01-13T14:39:34.089Z,99520.41
2023-01-13T14:41:16.136Z,99531.50
2023-01-13T14:42:56.256Z,99527.34
2023-01-13T14:44:32.477Z,99529.84
2023-01-13T14:46:04.668Z,99530.38
2023-01-13T14:47:36.866Z,99536.47
2023-01-13T14:49:21.039Z,99535.75
2023-01-13T14:50:52.997Z,99540.94
2023-01-13T14:52:26.040Z,99553.69
2023-01-13T14:53:58.526Z,99542.19
2023-01-13T14:55:31.454Z,99551.50
2023-01-13T14:57:12.079Z,99552.06
2023-01-13T14:58:44.120Z,99546.13
2023-01-13T15:00:16.225Z,99553.50
2023-01-13T15:01:48.553Z,99552.44
2023-01-13T15:03:21.078Z,99551.50
2023-01-13T15:04:54.392Z,99551.34
2023-01-13T15:06:26.798Z,99548.44
2023-01-13T15:08:00.811Z,99561.91
2023-01-13T15:09:40.073Z,99563.16
2023-01-13T15:11:20.491Z,99556.03
2023-01-13T15:12:53.887Z,99558.00
2023-01-13T15:14:27.718Z,99559.03
2023-01-13T15:16:01.288Z,99555.59
2023-01-13T15:17:33.337Z,99546.09
2023-01-13T15:19:05.322Z,99549.28
2023-01-13T15:20:37.309Z,99542.66
2023-01-13T15:22:09.245Z,99551.47
2023-01-13T15:23:41.750Z,99545.16
2023-01-13T15:25:14.966Z,99543.91
2023-01-13T15:26:46.938Z,99542.13
2023-01-13T15:28:23.131Z,99546.59
2023-01-13T15:29:55.195Z,99546.81
2023-01-13T15:31:28.249Z,99539.03
2023-01-13T15:33:00.747Z,99539.22
2023-01-13T15:34:33.098Z,99542.97
2023-01-13T15:36:06.598Z,99547.84
2023-01-13T15:37:38.659Z,99545.88
2023-01-13T15:39:11.383Z,99548.88
2023-01-13T15:40:43.510Z,99549.59
2023-01-13T15:42:33.864Z,99550.34
2023-01-13T15:44:24.577Z,99555.19
2023-01-13T15:46:15.322Z,99546.19
2023-01-13T15:47:48.364Z,99544.78
2023-01-13T15:49:26.500Z,99532.72
2023-01-13T15:50:58.824Z,99545.47
2023-01-13T15:52:31.314Z,99541.00
2023-01-13T15:54:03.339Z,99547.47
2023-01-13T15:55:37.289Z,99547.47
2023-01-13T15:57:18.877Z,99558.22
2023-01-13T15:58:50.945Z,99569.69
2023-01-13T16:00:23.203Z,99569.69
2023-01-13T16:01:55.244Z,99577.78
2023-01-13T16:03:27.216Z,99577.28
2023-01-13T16:04:59.772Z,99574.25
2023-01-13T16:06:36.268Z,99557.59
2023-01-13T16:08:14.402Z,99552.38
2023-01-13T16:09:46.568Z,99533.34
2023-01-13T16:11:18.579Z,99524.19
2023-01-13T16:12:50.577Z,99510.00
2023-01-13T16:14:22.649Z,99517.91
2023-01-13T16:15:56.693Z,99534.56
2023-01-13T16:17:31.219Z,99561.50
2023-01-13T16:19:03.217Z,99565.13
2023-01-13T16:20:36.251Z,99570.31
2023-01-13T16:22:09.614Z,99562.97
2023-01-13T16:23:41.758Z,99555.47
2023-01-13T16:25:17.755Z,99545.44
2023-01-13T16:26:49.904Z,99544.13
2023-01-13T16:28:24.052Z,99547.31
2023-01-13T16:29:58.950Z,99552.28
2023-01-13T16:31:32.993Z,99558.63
2023-01-13T16:33:05.065Z,99549.59
2023-01-13T16:34:37.216Z,99548.72
2023-01-13T16:36:16.011Z,99543.41
2023-01-13T16:37:48.586Z,99543.03
2023-01-13T16:39:25.604Z,99546.03
2023-01-13T16:41:14.344Z,99541.72
2023-01-13T16:42:49.456Z,99541.53
2023-01-13T16:44:21.469Z,99547.94
2023-01-13T16:45:53.508Z,99552.59
2023-01-13T16:47:25.558Z,99559.75
2023-01-13T16:49:01.927Z,99564.41
2023-01-13T16:50:36.103Z,99556.09
2023-01-13T16:52:08.226Z,99561.50
2023-01-13T16:53:40.304Z,99570.13
2023-01-13T16:55:12.347Z,99570.81
2023-01-13T16:56:45.251Z,99580.91
2023-01-13T16:58:18.483Z,99582.53
2023-01-13T16:59:53.187Z,99589.06
2023-01-13T17:01:34.756Z,99585.81
2023-01-13T17:03:06.984Z,99587.50
2023-01-13T17:05:07.927Z,99587.16
2023-01-13T17:06:53.109Z,99590.97
2023-01-13T17:08:25.144Z,99594.59
2023-01-13T17:09:57.597Z,99606.84
2023-01-13T17:11:29.956Z,99616.06
2023-01-13T17:13:14.077Z,99616.06
2023-01-13T17:14:47.907Z,99629.69
2023-01-13T17:16:21.492Z,99647.31
2023-01-13T17:17:55.323Z,99654.88
2023-01-13T17:19:27.288Z,99657.75
2023-01-13T17:21:00.055Z,99655.78
2023-01-13T17:22:32.338Z,99650.63
2023-01-13T17:24:08.071Z,99663.56
2023-01-13T17:25:40.187Z,99667.91
2023-01-13T17:27:12.380Z,99672.25
2023-01-13T17:28:45.662Z,99669.75
2023-01-13T17:30:17.743Z,99672.13
2023-01-13T17:31:50.923Z,99687.06
2023-01-13T17:33:23.182Z,99691.94
2023-01-13T17:34:55.381Z,99695.53
2023-01-13T17:36:27.465Z,99693.75
2023-01-13T17:37:59.447Z,99691.25
2023-01-13T17:39:32.418Z,99678.72
2023-01-13T17:41:05.517Z,99649.28
2023-01-13T17:42:37.796Z,99623.25
2023-01-13T17:44:12.882Z,99609.19
2023-01-13T17:45:45.059Z,99625.06
2023-01-13T17:47:17.038Z,99643.13
2023-01-13T17:48:50.775Z,99637.69
2023-01-13T17:50:22.823Z,99618.59
2023-01-13T17:51:55.048Z,99621.94
2023-01-13T17:53:26.990Z,99642.69
2023-01-13T17:54:59.081Z,99638.13
2023-01-13T17:56:31.179Z,99632.56
2023-01-13T17:58:03.285Z,99614.00
2023-01-13T17:59:35.315Z,99613.06
2023-01-13T18:01:08.809Z,99608.72
2023-01-13T18:02:40.880Z,99609.06
2023-01-13T18:04:17.227Z,99620.38
2023-01-13T18:05:49.477Z,99616.91
2023-01-13T18:07:21.562Z,99616.50
2023-01-13T18:08:53.786Z,99627.78
2023-01-13T18:10:25.765Z,99631.22
2023-01-13T18:11:58.841Z,99643.22
2023-01-13T18:13:33.715Z,99633.91
2023-01-13T18:15:07.337Z,99643.41
2023-01-13T18:16:39.502Z,99644.47
2023-01-13T18:18:11.470Z,99645.72
2023-01-13T18:20:01.979Z,99635.16
2023-01-13T18:21:53.048Z,99634.94
2023-01-13T18:23:43.376Z,99646.22
2023-01-13T18:25:34.049Z,99643.53
2023-01-13T18:27:18.969Z,99648.19
2023-01-13T18:28:50.878Z,99640.13
2023-01-13T18:30:22.866Z,99639.38
2023-01-13T18:31:54.808Z,99636.50
2023-01-13T18:33:26.801Z,99633.09
2023-01-13T18:35:05.622Z,99634.88
2023-01-13T18:36:38.367Z,99626.06
2023-01-13T18:38:13.562Z,99627.81
2023-01-13T18:39:45.516Z,99631.94
2023-01-13T18:41:36.094Z,99639.09
2023-01-13T18:43:07.986Z,99647.78
2023-01-13T18:44:40.171Z,99647.59
2023-01-13T18:46:12.251Z,99652.97